Regional Weather

 

KMKL - Jackson, TN, USA
Distance from station: WNW 50mi, 81km
Updated: Mon, Jan-27-2020 2:53am CST
Overcast
Overcast
 Wind from WSW
Wind: WSW 7 mph , 11 km/h
Temperature: 46°F , 8°C
Wind Chill: 42°F , 6°C
Dew Point: 46°F , 8°C
Humidity: 100%
Barometer: 29.94 inHg , 1013.9 hPa
Clouds: Overcast
Visibility: 9 miles , 14 km
Cloud details: Mostly cloudy 800 ft
Overcast 1500 ft
2020/01/27 08:53 KMKL 270853Z AUTO 25006KT 9SM BKN008 OVC015 08/08 A2994 RMK AO2 CIG 006V013 SLP140 T00830078 56001
KMEM - Memphis, TN, USA
Distance from station: W 108mi, 173km
Updated: Mon, Jan-27-2020 2:54am CST
Overcast
Overcast
 Wind from W
Wind: W 5 mph , 7 km/h
Temperature: 48°F , 9°C
Wind Chill: 46°F , 8°C
Dew Point: 46°F , 8°C
Humidity: 94%
Barometer: 29.96 inHg , 1014.6 hPa
Clouds: Overcast
Visibility: 10 miles , 16 km
Cloud details: Overcast 600 ft
2020/01/27 08:54 KMEM 270854Z 26004KT 10SM OVC006 09/08 A2996 RMK AO2 CIG 005V010 SLP147 T00890083 53001
 
KBNA - Nashville, TN, USA
Distance from station: NE 97mi, 157km
Updated: Mon, Jan-27-2020 2:53am CST
Overcast
Overcast
 Wind from SSW
Wind: SSW 6 mph , 9 km/h
Temperature: 46°F , 8°C
Wind Chill: 43°F , 6°C
Dew Point: 43°F , 6°C
Humidity: 87%
Barometer: 29.92 inHg , 1013.2 hPa
Clouds: Overcast
Visibility: 7 miles , 11 km
Cloud details: Overcast 700 ft
2020/01/27 08:53 KBNA 270853Z 20005KT 7SM OVC007 08/06 A2992 RMK AO2 RAE0756 SLP131 P0000 60001 T00780056 56010
KCKV - Clarksville, TN, USA
Distance from station: NNE 99mi, 159km
Updated: Mon, Jan-27-2020 3:39am CST
Mist, Overcast
Mist, Overcast
 Wind from SW
Wind: SW 5 mph , 7 km/h
Temperature: 46°F , 8°C
Wind Chill: 44°F , 7°C
Dew Point: 45°F , 7°C
Humidity: 93%
Barometer: 29.89 inHg , 1012.2 hPa
Summary: Mist
Clouds: Overcast
Visibility: 2 1/2 miles , 4 km
Cloud details: Overcast 200 ft
2020/01/27 09:39 KCKV 270939Z AUTO 22004KT 2 1/2SM BR OVC002 08/07 A2989 RMK AO2 T00780072
 
KPAH - Paducah, KY, USA
Distance from station: NNW 128mi, 205km
Updated: Mon, Jan-27-2020 3:18am CST
Partly cloudy
Partly cloudy
 Wind from calm
Wind: Calm
Temperature: 43°F , 6°C
Dew Point: 37°F , 3°C
Humidity: 81%
Barometer: 29.91 inHg , 1012.9 hPa
Clouds: Partly cloudy
Visibility: 10 miles , 16 km
Cloud details: Partly cloudy 2100 ft
Partly cloudy 3900 ft
2020/01/27 09:18 KPAH 270918Z AUTO 00000KT 10SM SCT021 SCT039 06/03 A2991 RMK AO2 T00610033
KCHA - Chattanooga, TN, USA
Distance from station: E 165mi, 265km
Updated: Mon, Jan-27-2020 3:16am CST
Overcast
Overcast
 Wind from calm
Wind: Calm
Temperature: 45°F , 7°C
Dew Point: 39°F , 4°C
Humidity: 81%
Barometer: 29.94 inHg , 1013.9 hPa
Clouds: Overcast
Visibility: 10 miles , 16 km
Cloud details: Mostly cloudy 2000 ft
Mostly cloudy 6000 ft
Overcast 7500 ft
2020/01/27 09:16 KCHA 270916Z AUTO 00000KT 10SM BKN020 BKN060 OVC075 07/04 A2994 RMK AO2 T00670044
 
KTYS - Knoxville, TN, USA
Distance from station: E 234mi, 377km
Updated: Mon, Jan-27-2020 2:53am CST
Light rain, Overcast
Light rain, Overcast
 Wind from SSW
Wind: SSW 5 mph , 7 km/h
Temperature: 41°F , 5°C
Wind Chill: 38°F , 3°C
Dew Point: 37°F , 3°C
Humidity: 87%
Barometer: 29.91 inHg , 1012.9 hPa
Summary: Light rain
Clouds: Overcast
Visibility: 10 miles , 16 km
Cloud details: Overcast 2300 ft
2020/01/27 08:53 KTYS 270853Z 21004KT 10SM -RA OVC023 05/03 A2991 RMK AO2 SLP131 P0001 60002 T00500033 56008 $
KLIT - Little Rock, AR, USA
Distance from station: W 240mi, 386km
Updated: Mon, Jan-27-2020 3:19am CST
Fog, Overcast
Fog, Overcast
 Wind from WSW
Wind: WSW 5 mph , 7 km/h
Temperature: 45°F , 7°C
Wind Chill: 42°F , 6°C
Dew Point: 45°F , 7°C
Humidity: 100%
Barometer: 30.00 inHg , 1015.9 hPa
Summary: Fog
Clouds: Overcast
Visibility: 1/2 mile , 0.8 km
Cloud details: Overcast 100 ft
2020/01/27 09:19 KLIT 270919Z 24004KT 1/2SM FG VV001 07/07 A3000 RMK AO2 T00670067 RVRNO $

Refresh Page for latest data.